Flight Track Log - Related Links

Times and Time Zones

All times are in EDT time to prevent confusion due to time zone crossing. See the PDT4314 flight status page for this flight to view local times or setup timezone preferences in your user account.

Time Position Orientation Groundspeed Altitude Reporting Facility
EDT Latitude Longitude Course Direction KTS MPH feet Rate Location/Type
Fri 06:19:26 PM 39.9000 -75.2333 348° North 140 161 800  Level Philadelphia TRACON
Fri 06:20:02 PM 39.9167 -75.2500 323° Northwest 141 162 1,700 1,063 Climbing Philadelphia TRACON
Fri 06:21:02 PM 39.9667 -75.2667 346° North 168 193 2,500 1,000 Climbing Philadelphia TRACON
Fri 06:22:00 PM 40.0953 -75.2833 North  Level FlightAware Approximate
Fri 06:22:02 PM 40.0167 -75.2667 360° North 172 198 3,700  Level Philadelphia TRACON
Fri 06:23:00 PM 40.1532 -75.2985 348° North  Level FlightAware Approximate
Fri 06:23:02 PM 40.0667 -75.2833 346° North 174 200 4,000  Level Philadelphia TRACON
Fri 06:24:00 PM 40.2110 -75.3149 348° North  Level FlightAware Approximate
Fri 06:24:02 PM 40.1167 -75.3000 346° North 212 244 4,000  Level Philadelphia TRACON
Fri 06:25:08 PM 40.1833 -75.3333 339° North 218 251 4,000  Level Philadelphia TRACON
Fri 06:27:00 PM 40.2926 -75.3538 352° North  Level FlightAware Approximate
Fri 06:34:00 PM 40.7010 -75.4461 349° North  Level FlightAware Approximate
Fri 06:35:00 PM 40.7599 -75.4500 North  Level FlightAware Approximate
Fri 06:36:00 PM 40.8191 -75.4500 North  Level FlightAware Approximate
Fri 06:37:00 PM 40.8782 -75.4500 North  Level FlightAware Approximate
Fri 06:38:00 PM 40.9374 -75.4500 North  Level FlightAware Approximate
Fri 06:39:00 PM 40.9965 -75.4500 North  Level FlightAware Approximate
Fri 06:40:00 PM 41.0556 -75.4517 357° North  Level FlightAware Approximate
Fri 06:41:00 PM 41.1147 -75.4562 357° North  Level FlightAware Approximate
Fri 06:42:00 PM 41.1737 -75.4608 357° North  Level FlightAware Approximate
Fri 06:43:00 PM 41.2327 -75.4653 357° North  Level FlightAware Approximate
Fri 06:44:00 PM 41.2919 -75.4667 North  Level FlightAware Approximate
Fri 06:45:00 PM 41.3510 -75.4667 North  Level FlightAware Approximate
Fri 06:46:00 PM 41.4101 -75.4667 North  Level FlightAware Approximate
Fri 06:47:00 PM 41.4688 -75.4688 323° Northwest  Level FlightAware Approximate
Fri 06:48:00 PM 41.5162 -75.5160 323° Northwest  Level FlightAware Approximate
Fri 06:49:00 PM 41.5635 -75.5633 323° Northwest  Level FlightAware Approximate
Fri 06:50:00 PM 41.6109 -75.6107 323° Northwest  Level FlightAware Approximate
Fri 06:51:00 PM 41.6582 -75.6581 323° Northwest  Level FlightAware Approximate
Fri 06:52:00 PM 41.7056 -75.7056 323° Northwest  Level FlightAware Approximate
Fri 06:53:00 PM 41.7538 -75.7514 325° Northwest  Level FlightAware Approximate
Fri 06:54:00 PM 41.8023 -75.7969 325° Northwest  Level FlightAware Approximate
Fri 06:55:00 PM 41.8507 -75.8425 325° Northwest  Level FlightAware Approximate
Fri 06:56:00 PM 41.8991 -75.8881 325° Northwest  Level FlightAware Approximate
Fri 06:57:00 PM 41.9475 -75.9337 325° Northwest  Level FlightAware Approximate
Fri 06:58:00 PM 41.9959 -75.9795 325° Northwest  Level FlightAware Approximate
Fri 06:59:00 PM 42.0435 -76.0268 323° Northwest  Level FlightAware Approximate
Fri 07:00:00 PM 42.0910 -76.0743 323° Northwest  Level FlightAware Approximate
Fri 07:01:00 PM 42.1385 -76.1218 323° Northwest  Level FlightAware Approximate
Fri 07:02:00 PM 42.1661 -76.0839 37° Northeast  Level FlightAware Approximate
Fri 07:03:00 PM 42.1945 -76.0139 62° Northeast  Level FlightAware Approximate
Fri 07:04:00 PM 42.2000 -75.9667 90° East  Level FlightAware Approximate
Fri 07:05:00 PM 42.2086 -75.9797 90° East  Level Estimated
Fri 07:06:00 PM 42.2086 -75.9797 90° East  Level Estimated
Fri 07:07:00 PM 42.2086 -75.9797 90° East  Level Estimated
Fri 07:08:00 PM 42.2086 -75.9797 90° East  Level Estimated
Fri 07:09:00 PM 42.2086 -75.9797 90° East  Level Estimated
Fri 07:10:00 PM 42.2086 -75.9797 90° East  Level Estimated
Fri 07:11:00 PM 42.2086 -75.9797 90° East  Level Estimated

Login

Don't have an account? Register now (free) for customized features, flight alerts, and more!